VYTN weather

Tanai Airport
Tanai, Kachin State, Burma

Public forecast

Using degrees Celsius for public forecast. Weather courtesy of forecast.io.

METAR (pilot weather report)

Closest report is Dibrugarh Airport, 113.7 nm (210.6 km) NW. Retrieved 2019/08/20 02:30 UTC (0 seconds ago):

VEMN 200230Z 09003KT 4000HZ FEW010 SCT020 FEW025 BKN100 28/27 Q1007 NOSIG

TAF (pilot weather forecast)

Forecast is more than 12 hours old.

Closest forecast is Jorhat Airport, 139.1 nm (257.6 km) W. Retrieved 2019/08/19 12:30 UTC (14 hours ago):

TAF VEJT 190930Z 1912/1924 24005KT 6000 SCT025 BKN090 TEMPO 1914/1918 SCT025 FEW030CB/TCU BKN090 BECMG 1922/1924 VRB02KT 5000 -RA SCT020 BKN080